Thebes, Egypt
Current Conditions -  °F | °C
As of 10:00 PM on Saturday 20 Dec 2014 (Local Time) from HELX Reporting Station
Clear Clear  
Wind Chill: 61°   Ceiling: Unl
Heat Index: 61°   Visibility: 6mi
Dew Point: 50°   Wind: 2mph
Humidity: 68%   Direction: 150°SSE
Pressure: 30.06"   Gusts: NA
Location:  25.7°N, 32.58°E
Report Text: HELX 202000Z 15002KT CAVOK 16/10 Q1018 NOSIG
Loading
Personal Weather Stations






























Interactive Weather Map New forecast layout! Learn more

10-Day Weather Forecast

Advertisements
Track Severe Weather on mobile